Time;durP1;ratioP1;P1;durP2;ratioP2;P2;SDS_P1;SDS_P2;PMS_P1;PMS_P2;Temp;Humidity;BMP_temperature;BMP_pressure;BME280_temperature;BME280_humidity;BME280_pressure;Samples;Min_cycle;Max_cycle;Signal;HPM_P1;HPM_P2
2021/01/09 00:35:47;;;;;;;9.39;6.00;;;;;;;0.94;83.48;99598.59;2278936;70;20306;-74
2021/01/09 00:38:49;;;;;;;9.60;5.67;;;;;;;0.94;83.60;99602.00;2281405;70;20301;-74
2021/01/09 00:41:51;;;;;;;8.81;6.12;;;;;;;0.94;83.44;99596.91;2280881;70;20166;-74
2021/01/09 00:44:52;;;;;;;7.01;5.60;;;;;;;0.95;83.48;99597.78;2286048;69;20233;-74
2021/01/09 00:47:54;;;;;;;8.81;6.28;;;;;;;0.93;83.35;99590.06;2282070;67;21827;-74
2021/01/09 00:50:56;;;;;;;9.24;6.15;;;;;;;0.93;83.32;99600.28;2281563;70;20429;-74
2021/01/09 00:53:57;;;;;;;11.07;6.67;;;;;;;0.93;83.31;99595.16;2281001;70;20367;-74
2021/01/09 00:56:59;;;;;;;10.10;6.10;;;;;;;0.90;83.45;99605.28;2281838;70;20190;-74
2021/01/09 01:00:04;;;;;;;8.25;6.24;;;;;;;0.86;83.27;99606.81;2281172;70;20279;-71
2021/01/09 01:03:06;;;;;;;10.05;6.75;;;;;;;0.85;83.28;99610.19;2287128;67;22951;-74
2021/01/09 01:06:11;;;;;;;10.17;7.03;;;;;;;0.85;83.28;99604.22;2287593;69;20358;-74
2021/01/09 01:09:13;;;;;;;11.78;7.08;;;;;;;0.84;83.23;99605.03;2287424;69;20692;-74
2021/01/09 01:12:14;;;;;;;11.28;7.19;;;;;;;0.83;83.39;99608.41;2292581;69;20186;-74
2021/01/09 01:15:16;;;;;;;11.50;7.36;;;;;;;0.84;83.37;99615.25;2286404;67;22510;-74
2021/01/09 01:18:21;;;;;;;10.68;7.20;;;;;;;0.85;83.33;99609.31;2282616;70;20750;-74
2021/01/09 01:21:23;;;;;;;10.76;6.97;;;;;;;0.87;83.34;99616.22;2281349;70;20335;-74
2021/01/09 01:24:25;;;;;;;11.54;7.71;;;;;;;0.85;83.30;99611.88;2281482;70;20335;-74
2021/01/09 01:27:26;;;;;;;12.74;7.75;;;;;;;0.82;83.36;99611.78;2280997;70;20321;-74
2021/01/09 01:30:30;;;;;;;9.79;6.88;;;;;;;0.81;83.55;99620.25;2280598;67;20725;-74
2021/01/09 01:33:32;;;;;;;12.02;7.78;;;;;;;0.79;83.50;99621.88;2281275;70;20290;-74
2021/01/09 01:36:34;;;;;;;11.74;7.76;;;;;;;0.77;83.72;99626.06;2281743;70;20589;-74
2021/01/09 01:39:35;;;;;;;13.27;7.86;;;;;;;0.73;83.75;99632.75;2284701;70;20282;-74
2021/01/09 01:42:37;;;;;;;10.38;7.43;;;;;;;0.69;83.70;99635.09;2283614;70;20687;-74
2021/01/09 01:45:40;;;;;;;12.68;7.56;;;;;;;0.68;83.85;99643.59;2283462;67;21083;-74
2021/01/09 01:48:42;;;;;;;11.10;7.55;;;;;;;0.62;83.74;99641.69;2290324;69;20305;-74
2021/01/09 01:51:44;;;;;;;10.87;6.99;;;;;;;0.61;83.86;99637.38;2289080;69;20312;-74
2021/01/09 01:54:47;;;;;;;10.49;7.53;;;;;;;0.62;83.97;99651.03;2289482;69;20138;-74
2021/01/09 01:57:49;;;;;;;11.74;7.76;;;;;;;0.62;83.96;99657.00;2290645;69;20223;-74
2021/01/09 02:00:51;;;;;;;11.65;7.63;;;;;;;0.64;84.07;99657.94;2288282;67;20993;-73
2021/01/09 02:03:53;;;;;;;11.62;7.66;;;;;;;0.66;84.22;99660.53;2289345;69;20783;-74
2021/01/09 02:06:57;;;;;;;10.81;7.06;;;;;;;0.65;84.41;99666.47;2288961;69;20191;-74
2021/01/09 02:09:59;;;;;;;11.72;7.22;;;;;;;0.66;84.42;99663.97;2290301;69;20669;-71
2021/01/09 02:13:07;;;;;;;10.58;7.61;;;;;;;0.66;84.35;99663.97;2289770;69;20167;-74
2021/01/09 02:16:10;;;;;;;11.76;6.85;;;;;;;0.64;84.48;99673.25;2283864;67;23803;-74
2021/01/09 02:19:14;;;;;;;10.42;7.20;;;;;;;0.64;84.35;99669.84;2282394;70;21095;-74
2021/01/09 02:22:17;;;;;;;11.22;7.33;;;;;;;0.58;84.23;99665.38;2281409;70;20159;-74
2021/01/09 02:25:18;;;;;;;12.88;8.27;;;;;;;0.54;84.16;99669.50;2281605;70;20190;-74
2021/01/09 02:28:20;;;;;;;12.43;8.56;;;;;;;0.53;84.25;99671.94;2282954;70;20543;-74
2021/01/09 02:31:24;;;;;;;15.18;9.57;;;;;;;0.52;84.29;99675.31;2280551;67;23152;-74
2021/01/09 02:34:32;;;;;;;15.79;9.51;;;;;;;0.52;84.29;99673.63;2281870;70;20197;-74
2021/01/09 02:37:34;;;;;;;15.31;9.66;;;;;;;0.52;84.42;99673.63;2282068;70;20641;-74
2021/01/09 02:40:43;;;;;;;14.29;9.34;;;;;;;0.50;84.47;99676.94;2280814;70;20147;-74
2021/01/09 02:43:45;;;;;;;16.61;9.35;;;;;;;0.47;84.37;99672.59;2281840;70;20163;-74
2021/01/09 02:46:46;;;;;;;15.37;9.50;;;;;;;0.40;84.10;99677.41;2284596;67;20924;-76
2021/01/09 02:49:48;;;;;;;14.44;9.62;;;;;;;0.34;84.01;99685.66;2288214;69;20181;-74
2021/01/09 02:52:50;;;;;;;15.32;9.12;;;;;;;0.24;83.82;99679.34;2287704;69;20594;-74
2021/01/09 02:55:52;;;;;;;14.28;9.63;;;;;;;0.17;83.69;99669.66;2287985;69;20219;-74
2021/01/09 02:58:53;;;;;;;14.13;9.51;;;;;;;0.09;83.79;99675.28;2288303;69;20174;-73
2021/01/09 03:01:55;;;;;;;14.09;8.77;;;;;;;0.06;83.95;99680.25;2287814;67;20177;-74
2021/01/09 03:04:57;;;;;;;13.09;8.79;;;;;;;0.06;84.09;99675.16;2290036;69;20193;-73
2021/01/09 03:07:58;;;;;;;14.38;9.17;;;;;;;0.06;84.34;99677.69;2289562;69;20184;-74
2021/01/09 03:11:00;;;;;;;13.52;9.28;;;;;;;0.07;84.67;99685.41;2290346;69;20184;-74
2021/01/09 03:14:02;;;;;;;15.64;9.33;;;;;;;0.10;85.07;99677.88;2289173;69;20220;-74
2021/01/09 03:17:04;;;;;;;12.02;8.36;;;;;;;0.13;85.23;99692.44;2285534;69;29808;-73
2021/01/09 03:20:06;;;;;;;13.60;8.28;;;;;;;0.13;85.44;99698.44;2285523;70;20209;-74
2021/01/09 03:23:08;;;;;;;12.83;8.41;;;;;;;0.13;85.50;99695.00;2285696;70;20210;-74
2021/01/09 03:26:10;;;;;;;16.60;9.40;;;;;;;0.13;85.39;99703.53;2284234;70;20350;-74
2021/01/09 03:29:12;;;;;;;12.82;9.19;;;;;;;0.08;85.53;99705.03;2285849;70;20166;-74
2021/01/09 03:32:14;;;;;;;14.72;8.92;;;;;;;0.08;85.88;99702.47;2284561;67;22272;-74
2021/01/09 03:35:16;;;;;;;12.54;8.71;;;;;;;0.12;86.01;99706.03;2286435;70;20209;-74
2021/01/09 03:38:17;;;;;;;13.09;8.70;;;;;;;0.08;86.22;99696.50;2285061;70;20155;-74
2021/01/09 03:41:19;;;;;;;11.78;8.42;;;;;;;0.11;86.26;99696.63;2284274;70;20243;-74
2021/01/09 03:44:21;;;;;;;12.07;8.69;;;;;;;0.11;86.31;99697.50;2285059;70;20210;-74
2021/01/09 03:47:22;;;;;;;13.38;9.09;;;;;;;0.13;86.38;99703.53;2283972;67;21028;-74
2021/01/09 03:50:24;;;;;;;12.59;8.48;;;;;;;0.15;86.35;99695.94;2285027;70;20690;-73
2021/01/09 03:53:26;;;;;;;15.04;8.97;;;;;;;0.12;86.11;99700.91;2283654;70;20236;-74
2021/01/09 03:56:27;;;;;;;12.97;8.34;;;;;;;0.08;86.27;99696.50;2284327;70;21280;-74
2021/01/09 03:59:29;;;;;;;12.72;8.30;;;;;;;0.05;86.09;99698.94;2285080;70;20201;-74
2021/01/09 04:02:31;;;;;;;13.37;9.16;;;;;;;0.01;85.74;99700.50;2283429;68;20190;-74
2021/01/09 04:05:32;;;;;;;12.86;8.19;;;;;;;-0.06;85.33;99699.34;2282597;70;20504;-74
2021/01/09 04:08:34;;;;;;;13.40;8.78;;;;;;;-0.18;84.90;99692.81;2282988;70;20212;-74
2021/01/09 04:11:35;;;;;;;13.59;8.58;;;;;;;-0.29;84.88;99699.16;2283143;70;20147;-72
2021/01/09 04:14:37;;;;;;;12.93;8.17;;;;;;;-0.35;84.85;99694.69;2282745;70;20180;-71
2021/01/09 04:17:39;;;;;;;13.64;8.58;;;;;;;-0.44;84.53;99695.13;2288769;68;22466;-71
2021/01/09 04:20:41;;;;;;;14.99;8.99;;;;;;;-0.59;84.78;99699.56;2289525;69;20170;-71
2021/01/09 04:23:42;;;;;;;13.26;8.66;;;;;;;-0.65;85.15;99697.63;2290560;69;20950;-71
2021/01/09 04:26:44;;;;;;;14.00;8.82;;;;;;;-0.67;85.39;99695.81;2290002;69;20656;-71
2021/01/09 04:29:46;;;;;;;12.62;8.26;;;;;;;-0.71;85.49;99691.38;2289516;69;20150;-71
2021/01/09 04:32:47;;;;;;;15.88;8.98;;;;;;;-0.83;85.20;99693.38;2283452;67;21045;-71
2021/01/09 04:35:49;;;;;;;12.83;8.36;;;;;;;-0.89;85.48;99699.06;2283004;70;20175;-71
2021/01/09 04:38:50;;;;;;;10.84;7.59;;;;;;;-0.89;85.50;99693.09;2283444;70;20167;-71
2021/01/09 04:41:52;;;;;;;12.22;7.69;;;;;;;-0.90;85.59;99697.28;2282677;70;20922;-71
2021/01/09 04:44:54;;;;;;;16.06;8.74;;;;;;;-0.94;85.57;99695.41;2283381;70;20226;-71
2021/01/09 04:47:57;;;;;;;13.53;9.27;;;;;;;-1.07;85.44;99699.09;2288664;67;20559;-71
2021/01/09 04:50:59;;;;;;;12.86;8.52;;;;;;;-1.10;85.30;99706.56;2289989;69;20188;-71
2021/01/09 04:54:01;;;;;;;12.26;8.17;;;;;;;-1.16;85.04;99710.50;2290015;69;20408;-71
2021/01/09 04:57:03;;;;;;;12.28;8.23;;;;;;;-1.26;84.78;99714.28;2289461;69;20703;-71
2021/01/09 05:00:06;;;;;;;13.71;8.39;;;;;;;-1.29;84.72;99714.16;2289662;69;20180;-71
2021/01/09 05:03:09;;;;;;;12.63;8.83;;;;;;;-1.39;84.50;99715.41;2284319;67;21306;-71
2021/01/09 05:06:11;;;;;;;13.67;9.06;;;;;;;-1.41;84.62;99716.13;2288719;69;20292;-70
2021/01/09 05:09:14;;;;;;;12.98;8.43;;;;;;;-1.43;84.69;99708.41;2288968;69;20174;-71
2021/01/09 05:12:18;;;;;;;12.24;8.02;;;;;;;-1.49;84.42;99719.97;2287988;69;20247;-71
2021/01/09 05:15:20;;;;;;;13.14;7.71;;;;;;;-1.53;84.50;99717.28;2287146;67;21482;-71
2021/01/09 05:18:21;;;;;;;13.42;8.32;;;;;;;-1.57;84.23;99724.69;2282614;70;20616;-71
2021/01/09 05:21:24;;;;;;;14.30;8.98;;;;;;;-1.63;84.33;99732.00;2282347;70;20200;-71
2021/01/09 05:24:26;;;;;;;14.59;9.30;;;;;;;-1.64;84.80;99741.31;2282351;70;20676;-71
2021/01/09 05:27:27;;;;;;;17.87;10.88;;;;;;;-1.47;85.97;99741.28;2281792;70;20163;-71
2021/01/09 05:30:29;;;;;;;17.72;11.13;;;;;;;-1.34;86.71;99749.59;2281152;67;21367;-71
2021/01/09 05:33:31;;;;;;;18.29;11.32;;;;;;;-1.23;87.06;99745.91;2281599;70;20159;-71
2021/01/09 05:36:34;;;;;;;16.28;10.44;;;;;;;-1.11;87.28;99737.06;2281351;70;20205;-71
2021/01/09 05:39:47;;;;;;;16.84;10.10;;;;;;;-1.03;87.42;99741.75;2282731;70;20179;-71
2021/01/09 05:42:50;;;;;;;14.48;10.01;;;;;;;-0.92;87.50;99743.09;2281715;70;20147;-71
2021/01/09 05:45:52;;;;;;;15.72;9.33;;;;;;;-0.83;87.46;99731.59;2282253;67;32034;-71
2021/01/09 05:48:53;;;;;;;14.39;9.41;;;;;;;-0.78;87.21;99736.09;2288340;69;20147;-71
2021/01/09 05:51:56;;;;;;;17.42;10.04;;;;;;;-0.72;87.31;99732.94;2288661;69;20188;-71
2021/01/09 05:55:01;;;;;;;14.61;10.04;;;;;;;-0.71;87.21;99735.59;2288774;69;21011;-71
2021/01/09 05:58:06;;;;;;;16.92;9.13;;;;;;;-0.68;87.14;99733.19;2287610;69;20150;-71
2021/01/09 06:01:10;;;;;;;16.17;9.67;;;;;;;-0.60;87.07;99741.16;2286702;67;22579;-71
2021/01/09 06:04:19;;;;;;;16.67;9.48;;;;;;;-0.61;86.82;99731.75;2288413;69;20214;-71
2021/01/09 06:07:24;;;;;;;;;;;;;;;-0.56;86.74;99737.06;2287866;69;20174;-71
2021/01/09 06:10:27;;;;;;;12.41;7.71;;;;;;;-0.51;86.73;99736.50;2288493;69;20096;-71
2021/01/09 06:13:32;;;;;;;14.60;8.62;;;;;;;-0.46;86.88;99737.56;2288179;69;20170;-73
2021/01/09 06:16:36;;;;;;;12.91;8.08;;;;;;;-0.43;86.82;99745.34;2284566;67;22382;-73
2021/01/09 06:19:38;;;;;;;13.74;9.09;;;;;;;-0.46;86.65;99744.34;2281608;70;20369;-72
2021/01/09 06:22:40;;;;;;;11.53;7.67;;;;;;;-0.46;86.71;99736.69;2281754;70;20182;-73
2021/01/09 06:25:43;;;;;;;12.98;8.62;;;;;;;-0.43;86.63;99745.34;2280937;70;20256;-73
2021/01/09 06:28:46;;;;;;;13.42;8.49;;;;;;;-0.41;86.70;99742.84;2281924;70;20196;-73
2021/01/09 06:31:57;;;;;;;14.83;8.80;;;;;;;-0.36;86.67;99742.28;2280084;67;22705;-73
2021/01/09 06:35:02;;;;;;;11.22;8.12;;;;;;;-0.34;86.79;99750.00;2281720;70;20867;-71
2021/01/09 06:38:06;;;;;;;10.62;8.17;;;;;;;-0.31;86.83;99752.69;2281407;70;20158;-74
2021/01/09 06:41:14;;;;;;;12.84;8.13;;;;;;;-0.27;86.59;99763.88;2281970;70;20163;-73
2021/01/09 06:44:16;;;;;;;13.04;7.76;;;;;;;-0.27;86.20;99766.44;2283472;70;20189;-71
2021/01/09 06:47:27;;;;;;;12.47;8.19;;;;;;;-0.37;86.39;99772.78;2291264;67;21235;-70
2021/01/09 06:50:31;;;;;;;12.39;8.49;;;;;;;-0.34;86.50;99772.94;2295757;69;20231;-71
2021/01/09 06:53:32;;;;;;;10.31;6.86;;;;;;;-0.31;86.55;99773.09;2296024;69;20463;-71
2021/01/09 06:56:34;;;;;;;10.74;7.64;;;;;;;-0.23;86.67;99781.94;2297244;69;20154;-74
2021/01/09 06:59:46;;;;;;;11.22;7.44;;;;;;;-0.21;86.54;99776.91;2296505;69;20171;-73
2021/01/09 07:03:09;;;;;;;11.38;7.94;;;;;;;-0.18;86.43;99777.94;2295638;67;23286;-71
2021/01/09 07:06:11;;;;;;;11.93;7.56;;;;;;;-0.13;85.97;99785.78;2296606;69;20253;-72
2021/01/09 07:09:13;;;;;;;11.52;7.40;;;;;;;-0.10;85.83;99785.91;2296325;69;20606;-73
2021/01/09 07:12:17;;;;;;;9.99;6.86;;;;;;;-0.14;85.42;99787.47;2296467;69;20169;-76
2021/01/09 07:15:20;;;;;;;10.51;7.14;;;;;;;-0.14;85.43;99786.59;2294622;67;24122;-75
2021/01/09 07:18:22;;;;;;;11.61;7.30;;;;;;;-0.11;85.38;99787.59;2296521;69;20729;-76
2021/01/09 07:21:24;;;;;;;10.94;7.12;;;;;;;-0.07;85.27;99792.03;2296933;69;20187;-74
2021/01/09 07:24:27;;;;;;;9.00;6.91;;;;;;;-0.04;85.09;99791.28;2296507;69;20616;-74
2021/01/09 07:27:38;;;;;;;9.76;6.97;;;;;;;-0.02;84.95;99774.34;2295990;69;20169;-74
2021/01/09 07:30:41;;;;;;;11.52;6.61;;;;;;;-0.06;84.65;99775.91;2294897;67;26030;-73
2021/01/09 07:33:45;;;;;;;9.69;6.91;;;;;;;-0.13;84.45;99779.00;2295933;69;20195;-74
2021/01/09 07:36:53;;;;;;;10.60;6.77;;;;;;;-0.21;84.51;99779.44;2296060;69;20898;-73
2021/01/09 07:39:54;;;;;;;8.83;6.28;;;;;;;-0.26;84.48;99784.34;2296249;69;20199;-72
2021/01/09 07:42:57;;;;;;;10.39;6.79;;;;;;;-0.27;84.53;99790.28;2300811;69;20190;-73
2021/01/09 07:46:00;;;;;;;12.43;7.44;;;;;;;-0.26;84.78;99793.69;2295804;67;20767;-71
2021/01/09 07:49:03;;;;;;;10.20;7.33;;;;;;;-0.30;84.46;99790.13;2295198;69;20159;-73
2021/01/09 07:52:07;;;;;;;11.91;7.26;;;;;;;-0.26;84.76;99803.91;2294734;69;20165;-73
2021/01/09 07:55:14;;;;;;;10.12;6.58;;;;;;;-0.18;84.71;99797.44;2293793;69;20203;-73
2021/01/09 07:58:15;;;;;;;9.18;6.69;;;;;;;-0.13;84.34;99806.19;2292880;69;20154;-72
2021/01/09 08:01:17;;;;;;;9.52;6.69;;;;;;;-0.06;84.19;99814.19;2295837;67;20179;-72
2021/01/09 08:04:19;;;;;;;9.93;7.30;;;;;;;-0.02;84.03;99810.97;2295891;69;20153;-72
2021/01/09 08:07:21;;;;;;;11.02;6.91;;;;;;;-0.02;83.72;99821.16;2296201;69;20153;-73
2021/01/09 08:10:31;;;;;;;10.04;6.78;;;;;;;-0.02;83.20;99822.84;2295604;69;20173;-73
2021/01/09 08:13:33;;;;;;;10.62;6.48;;;;;;;-0.02;83.02;99825.41;2295418;69;20165;-73
2021/01/09 08:16:35;;;;;;;9.44;6.67;;;;;;;0.02;82.61;99829.84;2294678;67;41596;-73
2021/01/09 08:19:40;;;;;;;11.20;6.88;;;;;;;-0.04;82.39;99829.56;2296800;69;20170;-73
2021/01/09 08:22:50;;;;;;;9.32;6.81;;;;;;;-0.02;82.45;99833.94;2297136;69;20191;-73
2021/01/09 08:25:53;;;;;;;10.48;7.42;;;;;;;-0.09;82.69;99831.91;2295202;69;20158;-73
2021/01/09 08:28:57;;;;;;;9.48;7.01;;;;;;;-0.05;83.02;99845.69;2300873;69;20153;-73
2021/01/09 08:32:01;;;;;;;11.54;7.66;;;;;;;-0.03;83.29;99844.06;2294643;67;20976;-72
2021/01/09 08:35:03;;;;;;;10.86;7.39;;;;;;;0.01;83.62;99848.53;2294714;69;20285;-73
2021/01/09 08:38:05;;;;;;;8.80;6.43;;;;;;;0.07;83.57;99848.78;2296226;69;20183;-73
2021/01/09 08:41:07;;;;;;;10.44;6.73;;;;;;;0.13;83.54;99846.50;2295910;69;20250;-73
2021/01/09 08:44:10;;;;;;;9.66;6.67;;;;;;;0.17;83.53;99844.94;2296210;69;20158;-73
2021/01/09 08:47:13;;;;;;;9.11;5.87;;;;;;;0.19;83.39;99849.34;2294426;66;20668;-73
2021/01/09 08:50:17;;;;;;;9.84;6.50;;;;;;;0.25;83.34;99847.06;2295642;69;20165;-73
2021/01/09 08:53:20;;;;;;;8.81;5.88;;;;;;;0.30;83.30;99855.78;2294655;69;20191;-73
2021/01/09 08:56:24;;;;;;;9.81;7.17;;;;;;;0.35;83.13;99853.41;2294908;69;20158;-73
2021/01/09 08:59:26;;;;;;;7.94;5.80;;;;;;;0.41;83.05;99861.38;2294776;69;20195;-73
2021/01/09 09:02:34;;;;;;;7.28;6.24;;;;;;;0.45;83.16;99862.38;2294647;67;20672;-72
2021/01/09 09:05:39;;;;;;;8.28;5.76;;;;;;;0.49;83.01;99852.34;2293141;69;20174;-73
2021/01/09 09:08:41;;;;;;;6.96;4.70;;;;;;;0.58;82.31;99856.97;2293188;69;20177;-72
2021/01/09 09:11:50;;;;;;;7.41;4.62;;;;;;;0.63;80.93;99857.16;2293261;69;20150;-73
2021/01/09 09:14:56;;;;;;;8.02;5.23;;;;;;;0.73;79.93;99856.75;2293035;69;20146;-73
2021/01/09 09:17:58;;;;;;;6.65;4.55;;;;;;;0.86;80.11;99862.41;2292594;67;21852;-73
2021/01/09 09:21:00;;;;;;;5.70;4.71;;;;;;;0.97;80.08;99860.31;2292520;69;20434;-73
2021/01/09 09:24:02;;;;;;;5.86;4.65;;;;;;;1.04;79.38;99862.31;2293155;69;20522;-73
2021/01/09 09:27:21;;;;;;;6.29;4.70;;;;;;;1.14;79.18;99867.00;2292445;69;20773;-73
2021/01/09 09:30:25;;;;;;;4.85;4.15;;;;;;;1.22;78.24;99867.28;2294342;67;20272;-73
2021/01/09 09:33:27;;;;;;;6.03;4.44;;;;;;;1.36;78.01;99875.53;2294996;69;20665;-73
2021/01/09 09:36:31;;;;;;;5.51;4.45;;;;;;;1.53;77.70;99877.06;2294415;69;20315;-73
2021/01/09 09:39:34;;;;;;;4.73;3.93;;;;;;;1.66;76.77;99879.31;2294494;69;20721;-73
2021/01/09 09:42:35;;;;;;;6.79;4.89;;;;;;;1.75;76.29;99884.75;2293628;69;20179;-73
2021/01/09 09:45:37;;;;;;;6.38;4.81;;;;;;;1.82;76.76;99891.00;2291828;67;22886;-73
2021/01/09 09:48:43;;;;;;;14.59;8.59;;;;;;;1.87;76.30;99902.28;2294680;69;20434;-73
2021/01/09 09:51:45;;;;;;;8.65;6.20;;;;;;;1.93;76.10;99896.50;2294518;69;20786;-73
2021/01/09 09:55:00;;;;;;;9.68;5.94;;;;;;;1.97;75.66;99901.81;2295390;69;20300;-73
2021/01/09 09:58:09;;;;;;;6.86;4.90;;;;;;;1.99;75.63;99907.88;2295347;69;20319;-74
2021/01/09 10:01:22;;;;;;;6.16;5.35;;;;;;;1.94;75.04;99904.25;2294150;67;22972;-73
2021/01/09 10:04:24;;;;;;;7.07;5.51;;;;;;;1.92;75.36;99908.44;2293623;69;21035;-73
2021/01/09 10:07:26;;;;;;;5.45;4.50;;;;;;;1.89;75.14;99912.59;2294985;69;20503;-72
2021/01/09 10:10:27;;;;;;;6.13;4.86;;;;;;;1.79;74.80;99909.66;2294697;69;20369;-72
2021/01/09 10:13:30;;;;;;;5.66;4.69;;;;;;;1.75;75.37;99907.78;2294304;69;20325;-72
2021/01/09 10:16:33;;;;;;;6.81;5.24;;;;;;;1.75;75.50;99907.78;2293788;67;21049;-72
2021/01/09 10:19:35;;;;;;;7.68;4.76;;;;;;;1.74;75.01;99906.06;2295485;69;20900;-73
2021/01/09 10:22:38;;;;;;;6.99;4.74;;;;;;;1.73;74.41;99903.44;2294879;69;20325;-73
2021/01/09 10:25:39;;;;;;;5.75;4.07;;;;;;;1.70;74.84;99909.31;2294933;69;20800;-73
2021/01/09 10:28:41;;;;;;;6.36;4.74;;;;;;;1.64;74.87;99905.66;2294881;69;20353;-73
2021/01/09 10:31:43;;;;;;;8.19;4.60;;;;;;;1.60;75.65;99909.75;2293516;67;20685;-73
2021/01/09 10:34:44;;;;;;;6.57;5.13;;;;;;;1.60;75.86;99906.31;2294471;69;21074;-73
2021/01/09 10:37:47;;;;;;;7.57;5.69;;;;;;;1.58;75.65;99907.94;2294664;69;20318;-73
2021/01/09 10:40:48;;;;;;;8.07;5.13;;;;;;;1.61;75.93;99910.63;2294762;69;20303;-74
2021/01/09 10:43:50;;;;;;;11.31;7.20;;;;;;;1.64;75.71;99911.66;2294852;69;20292;-73
2021/01/09 10:46:51;;;;;;;10.61;6.10;;;;;;;1.72;75.97;99907.69;2288749;67;25024;-74
2021/01/09 10:49:53;;;;;;;9.38;6.54;;;;;;;1.79;75.52;99909.66;2295336;69;20321;-74
2021/01/09 10:52:55;;;;;;;7.90;5.80;;;;;;;1.84;75.11;99908.97;2295302;69;20288;-74
2021/01/09 10:55:57;;;;;;;7.03;5.06;;;;;;;1.83;74.96;99908.13;2295673;69;20300;-74
2021/01/09 10:58:59;;;;;;;7.99;5.50;;;;;;;1.85;74.80;99914.16;2294909;69;20414;-73
2021/01/09 11:02:04;;;;;;;7.18;5.76;;;;;;;1.91;75.12;99905.84;2292450;67;22213;-73
2021/01/09 11:05:06;;;;;;;7.68;5.63;;;;;;;1.95;75.18;99902.56;2295458;69;21079;-73
2021/01/09 11:08:08;;;;;;;7.46;5.22;;;;;;;1.98;74.77;99898.47;2294840;69;20856;-73
2021/01/09 11:11:09;;;;;;;7.35;5.66;;;;;;;1.97;74.46;99896.69;2294862;69;20860;-73
2021/01/09 11:14:11;;;;;;;7.44;5.06;;;;;;;1.97;74.04;99896.69;2294709;69;20586;-73
2021/01/09 11:17:13;;;;;;;6.60;5.01;;;;;;;2.00;74.29;99890.84;2293595;67;28542;-73
2021/01/09 11:20:15;;;;;;;7.55;4.55;;;;;;;1.99;74.03;99889.09;2294675;69;20520;-73
2021/01/09 11:23:18;;;;;;;6.65;4.61;;;;;;;2.02;73.93;99892.63;2294148;69;20292;-73
2021/01/09 11:26:25;;;;;;;6.61;4.18;;;;;;;2.04;74.01;99882.44;2293195;69;21022;-73
2021/01/09 11:29:27;;;;;;;5.11;3.38;;;;;;;2.07;73.47;99877.44;2293795;69;20307;-73
2021/01/09 11:32:29;;;;;;;5.13;3.80;;;;;;;2.12;73.22;99881.03;2291931;67;22411;-73
2021/01/09 11:35:31;;;;;;;3.38;3.07;;;;;;;2.18;73.17;99872.72;2292334;69;20327;-73
2021/01/09 11:38:52;;;;;;;7.19;3.39;;;;;;;2.22;72.59;99866.88;2292892;69;20325;-73
2021/01/09 11:41:58;;;;;;;2.96;2.67;;;;;;;2.24;71.68;99863.56;2292991;69;20900;-73
2021/01/09 11:44:59;;;;;;;3.40;3.10;;;;;;;2.28;71.43;99864.53;2293717;69;20725;-73
2021/01/09 11:48:01;;;;;;;3.01;2.29;;;;;;;2.34;70.90;99868.19;2293017;68;21477;-73
2021/01/09 11:51:03;;;;;;;2.95;2.70;;;;;;;2.38;70.74;99866.63;2294043;69;21058;-74
2021/01/09 11:54:05;;;;;;;4.22;2.95;;;;;;;2.41;70.41;99866.72;2294641;69;20661;-73
2021/01/09 11:57:07;;;;;;;4.04;2.55;;;;;;;2.46;70.05;99852.38;2294442;69;20357;-73
2021/01/09 12:00:10;;;;;;;4.45;3.19;;;;;;;2.51;68.97;99857.66;2294932;69;20284;-73
2021/01/09 12:03:12;;;;;;;2.63;2.36;;;;;;;2.55;69.30;99862.09;2294386;67;20609;-73
2021/01/09 12:06:17;;;;;;;3.47;2.42;;;;;;;2.59;68.87;99863.94;2294511;69;20642;-73
2021/01/09 12:09:19;;;;;;;2.58;2.08;;;;;;;2.58;68.29;99855.38;2296009;69;20300;-73
2021/01/09 12:12:20;;;;;;;2.76;2.35;;;;;;;2.57;67.98;99858.75;2294713;69;20325;-73
2021/01/09 12:15:22;;;;;;;2.92;2.55;;;;;;;2.54;67.66;99852.66;2294058;67;22154;-73
2021/01/09 12:18:24;;;;;;;2.79;2.28;;;;;;;2.50;67.86;99853.34;2295764;69;20307;-73
2021/01/09 12:21:30;;;;;;;2.35;2.15;;;;;;;2.44;67.41;99854.00;2299070;69;20322;-73
2021/01/09 12:24:32;;;;;;;2.29;2.08;;;;;;;2.48;67.50;99852.41;2294433;69;20347;-73
2021/01/09 12:27:35;;;;;;;2.58;2.38;;;;;;;2.52;67.23;99856.84;2294827;69;20295;-73
2021/01/09 12:30:37;;;;;;;2.69;1.92;;;;;;;2.59;67.21;99851.13;2294717;67;20296;-72
2021/01/09 12:33:43;;;;;;;2.60;1.92;;;;;;;2.67;66.89;99858.22;2294314;69;20414;-73
2021/01/09 12:36:50;;;;;;;2.55;2.04;;;;;;;2.70;66.70;99853.25;2295646;69;20844;-73
2021/01/09 12:39:51;;;;;;;3.97;2.91;;;;;;;2.70;65.82;99845.56;2295147;69;20300;-75
2021/01/09 12:42:53;;;;;;;3.40;2.33;;;;;;;2.70;65.42;99847.25;2297520;69;20295;-73
2021/01/09 12:45:55;;;;;;;2.50;2.17;;;;;;;2.71;65.45;99854.13;2295566;67;22697;-73
2021/01/09 12:48:57;;;;;;;2.19;1.99;;;;;;;2.69;65.25;99850.59;2295824;69;20347;-73
2021/01/09 12:51:59;;;;;;;2.15;1.73;;;;;;;2.67;65.05;99845.41;2295925;69;20300;-72
2021/01/09 12:55:01;;;;;;;3.99;1.92;;;;;;;2.64;64.30;99850.44;2295717;69;20997;-73
2021/01/09 12:58:03;;;;;;;2.56;1.73;;;;;;;2.64;64.69;99849.56;2295273;69;20780;-74
2021/01/09 13:01:04;;;;;;;1.86;1.59;;;;;;;2.66;64.79;99855.63;2294434;67;23613;-73
2021/01/09 13:04:13;;;;;;;2.20;2.00;;;;;;;2.64;64.25;99852.13;2294834;69;20335;-73
2021/01/09 13:07:14;;;;;;;2.11;1.91;;;;;;;2.65;64.99;99853.88;2295328;69;20283;-73
2021/01/09 13:10:16;;;;;;;1.83;1.65;;;;;;;2.68;64.18;99853.97;2295209;69;20677;-73
2021/01/09 13:13:18;;;;;;;1.58;1.48;;;;;;;2.71;65.28;99852.41;2294833;69;20283;-73
2021/01/09 13:16:19;;;;;;;2.70;1.91;;;;;;;2.70;65.79;99857.50;2293982;66;22244;-73
2021/01/09 13:19:22;;;;;;;2.83;1.96;;;;;;;2.69;65.24;99854.06;2296040;69;20315;-72
2021/01/09 13:22:24;;;;;;;2.25;2.05;;;;;;;2.71;66.02;99852.41;2295049;69;20280;-73
2021/01/09 13:25:25;;;;;;;2.24;1.71;;;;;;;2.71;65.58;99854.13;2295613;69;20299;-73
2021/01/09 13:28:27;;;;;;;2.24;1.98;;;;;;;2.74;65.25;99856.78;2294561;69;20333;-73
2021/01/09 13:31:30;;;;;;;1.67;1.58;;;;;;;2.72;63.78;99851.59;2293942;67;20316;-73
2021/01/09 13:34:32;;;;;;;1.70;1.60;;;;;;;2.75;63.77;99847.38;2294592;69;20380;-73
2021/01/09 13:37:37;;;;;;;1.89;1.70;;;;;;;2.77;64.11;99850.88;2289993;69;20338;-73
2021/01/09 13:40:39;;;;;;;1.20;1.10;;;;;;;2.81;63.90;99851.03;2295741;69;20873;-73
2021/01/09 13:43:41;;;;;;;1.60;1.50;;;;;;;2.86;63.67;99851.16;2294768;69;20307;-73
2021/01/09 13:46:43;;;;;;;1.27;1.08;;;;;;;2.82;62.61;99851.88;2293781;67;20699;-73
2021/01/09 13:49:45;;;;;;;2.20;1.59;;;;;;;2.80;62.34;99845.84;2294226;69;20296;-73
2021/01/09 13:53:01;;;;;;;1.58;1.40;;;;;;;2.78;62.34;99857.75;2295347;69;20295;-73
2021/01/09 13:56:03;;;;;;;1.20;1.06;;;;;;;2.75;62.24;99857.66;2294082;69;20323;-72
2021/01/09 13:59:08;;;;;;;1.71;1.35;;;;;;;2.75;62.57;99860.22;2295265;69;20291;-73
2021/01/09 14:02:11;;;;;;;3.64;2.05;;;;;;;2.72;63.71;99871.25;2294060;67;20383;-73
2021/01/09 14:05:14;;;;;;;1.60;1.50;;;;;;;2.68;63.81;99862.53;2295214;69;20335;-74
2021/01/09 14:08:15;;;;;;;3.30;2.55;;;;;;;2.65;64.03;99867.56;2294990;69;20319;-72
2021/01/09 14:11:22;;;;;;;2.04;1.58;;;;;;;2.62;64.13;99870.03;2294969;69;20337;-73
2021/01/09 14:14:23;;;;;;;1.64;1.54;;;;;;;2.62;63.77;99872.59;2293848;69;20892;-73
2021/01/09 14:17:25;;;;;;;1.70;1.45;;;;;;;2.67;63.97;99878.75;2293850;67;22618;-73
2021/01/09 14:20:27;;;;;;;1.99;1.46;;;;;;;2.73;64.10;99878.09;2295238;69;20307;-73
2021/01/09 14:23:28;;;;;;;1.63;1.35;;;;;;;2.70;63.50;99878.88;2295059;69;20850;-73
2021/01/09 14:26:31;;;;;;;1.75;1.20;;;;;;;2.69;63.94;99879.69;2295108;69;20296;-73
2021/01/09 14:29:34;;;;;;;3.25;2.24;;;;;;;2.68;64.15;99877.06;2295386;69;20338;-73
2021/01/09 14:32:35;;;;;;;2.56;1.73;;;;;;;2.67;63.69;99886.44;2294116;67;23934;-73
2021/01/09 14:35:37;;;;;;;1.92;1.76;;;;;;;2.70;63.25;99883.13;2294633;69;20784;-73
2021/01/09 14:38:39;;;;;;;1.55;1.45;;;;;;;2.72;63.95;99881.50;2294832;69;20395;-73
2021/01/09 14:41:44;;;;;;;2.69;1.39;;;;;;;2.75;64.18;99886.72;2295295;69;21103;-73
2021/01/09 14:44:46;;;;;;;2.15;1.59;;;;;;;2.76;64.07;99880.78;2293552;69;20321;-73
2021/01/09 14:47:54;;;;;;;2.95;2.41;;;;;;;2.80;64.19;99879.19;2292250;67;20517;-73
2021/01/09 14:50:56;;;;;;;2.85;2.31;;;;;;;2.80;64.90;99885.19;2294627;69;20343;-73
2021/01/09 14:53:58;;;;;;;2.85;2.25;;;;;;;2.82;64.98;99887.78;2294319;69;20648;-73
2021/01/09 14:57:01;;;;;;;2.67;1.79;;;;;;;2.80;65.20;99892.00;2294599;69;20299;-73